createdAt,value
2022-08-10T00:01:39.692Z,4.43
2022-08-10T00:04:07.785Z,4.80
2022-08-10T00:06:35.946Z,4.47
2022-08-10T00:09:05.425Z,4.22
2022-08-10T00:11:33.249Z,4.60
2022-08-10T00:14:02.053Z,5.03
2022-08-10T00:16:29.874Z,5.10
2022-08-10T00:18:57.646Z,4.85
2022-08-10T00:21:27.141Z,5.13
2022-08-10T00:23:55.227Z,4.63
2022-08-10T00:26:24.394Z,4.80
2022-08-10T00:28:52.669Z,4.45
2022-08-10T00:31:20.555Z,5.72
2022-08-10T00:33:48.299Z,5.13
2022-08-10T00:36:16.641Z,5.32
2022-08-10T00:38:44.514Z,4.55
2022-08-10T00:41:12.359Z,4.85
2022-08-10T00:43:41.874Z,5.18
2022-08-10T00:46:09.794Z,5.50
2022-08-10T00:48:37.749Z,5.57
2022-08-10T00:51:06.353Z,4.60
2022-08-10T00:53:34.298Z,5.10
2022-08-10T00:57:09.993Z,5.18
2022-08-10T00:58:51.959Z,5.57
2022-08-10T01:02:09.436Z,5.15
2022-08-10T01:04:57.860Z,4.70
2022-08-10T01:07:14.813Z,4.82
2022-08-10T01:09:56.971Z,6.00
2022-08-10T01:12:38.312Z,5.30
2022-08-10T01:15:20.015Z,5.68
2022-08-10T01:17:54.888Z,5.53
2022-08-10T01:20:31.230Z,5.05
2022-08-10T01:23:39.013Z,5.75
2022-08-10T01:26:31.555Z,5.68
2022-08-10T01:29:18.986Z,5.30
2022-08-10T01:31:54.311Z,5.90
2022-08-10T01:34:26.528Z,5.97
2022-08-10T01:36:59.546Z,6.25
2022-08-10T01:39:31.313Z,6.47
2022-08-10T01:44:33.362Z,6.60
2022-08-10T01:47:24.743Z,6.97
2022-08-10T01:50:03.217Z,6.95
2022-08-10T01:52:33.179Z,6.15
2022-08-10T01:55:01.234Z,6.50
2022-08-10T01:57:32.304Z,4.65
2022-08-10T02:00:03.500Z,4.70
2022-08-10T02:02:36.025Z,4.95
2022-08-10T02:05:06.681Z,6.03
2022-08-10T02:07:37.883Z,5.65
2022-08-10T02:10:12.181Z,5.40
2022-08-10T02:12:41.924Z,5.53
2022-08-10T02:15:15.593Z,5.47
2022-08-10T02:17:59.322Z,5.72
2022-08-10T02:20:34.577Z,6.22
2022-08-10T02:23:08.615Z,7.28
2022-08-10T02:25:41.673Z,7.50
2022-08-10T02:28:30.575Z,6.13
2022-08-10T02:31:04.267Z,6.78
2022-08-10T02:33:38.368Z,6.82
2022-08-10T02:36:09.861Z,6.65
2022-08-10T02:38:57.479Z,7.57
2022-08-10T02:45:13.001Z,7.47
2022-08-10T02:45:26.453Z,7.03
2022-08-10T02:47:22.978Z,6.35
2022-08-10T02:49:58.458Z,6.40
2022-08-10T02:52:36.507Z,7.03
2022-08-10T02:55:18.279Z,6.47
2022-08-10T03:00:43.373Z,6.47
2022-08-10T03:03:16.475Z,10.65
2022-08-10T03:05:48.139Z,7.18
2022-08-10T03:08:20.477Z,7.15
2022-08-10T03:13:20.130Z,6.78
2022-08-10T03:15:49.151Z,6.93
2022-08-10T03:18:19.535Z,6.97
2022-08-10T03:20:50.620Z,6.53
2022-08-10T03:23:20.517Z,6.65
2022-08-10T03:25:53.615Z,6.47
2022-08-10T03:28:24.496Z,6.57
2022-08-10T03:30:53.790Z,6.72
2022-08-10T03:33:23.236Z,6.05
2022-08-10T03:36:42.600Z,5.68
2022-08-10T03:38:41.461Z,6.03
2022-08-10T03:41:16.210Z,6.30
2022-08-10T03:43:47.746Z,6.68
2022-08-10T03:46:19.360Z,6.28
2022-08-10T03:48:51.155Z,6.57
2022-08-10T03:51:22.810Z,7.63
2022-08-10T03:54:04.472Z,7.25
2022-08-10T03:56:40.339Z,7.63
2022-08-10T03:59:15.122Z,6.75
2022-08-10T04:02:46.580Z,6.78
2022-08-10T04:04:32.064Z,7.50
2022-08-10T04:07:03.441Z,7.10
2022-08-10T04:09:55.668Z,6.93
2022-08-10T04:12:21.598Z,7.68
2022-08-10T04:14:52.479Z,7.97
2022-08-10T04:20:18.454Z,6.78
2022-08-10T04:22:50.877Z,7.80
2022-08-10T04:25:20.283Z,8.30
2022-08-10T04:27:49.390Z,7.45
2022-08-10T04:30:17.337Z,7.63
2022-08-10T04:32:48.037Z,7.35
2022-08-10T04:35:19.872Z,7.63
2022-08-10T04:37:50.382Z,7.85
2022-08-10T04:40:28.638Z,7.25
2022-08-10T04:43:09.071Z,7.53
2022-08-10T04:45:49.471Z,7.47
2022-08-10T04:48:40.577Z,6.72
2022-08-10T04:51:17.303Z,6.82
2022-08-10T04:54:02.797Z,6.68
2022-08-10T04:56:35.382Z,6.95
2022-08-10T04:59:03.588Z,6.68
2022-08-10T05:02:22.059Z,6.72
2022-08-10T05:04:37.948Z,6.63
2022-08-10T05:07:08.589Z,6.35
2022-08-10T05:10:00.986Z,6.72
2022-08-10T05:12:27.712Z,7.43
2022-08-10T05:14:56.329Z,6.90
2022-08-10T05:17:25.306Z,6.55
2022-08-10T05:20:02.137Z,7.45
2022-08-10T05:22:34.548Z,7.07
2022-08-10T05:25:04.159Z,5.68
2022-08-10T05:27:31.918Z,5.88
2022-08-10T05:30:01.197Z,6.05
2022-08-10T05:32:31.077Z,6.00
2022-08-10T05:34:59.116Z,5.65
2022-08-10T05:38:09.148Z,6.65
2022-08-10T05:40:19.933Z,5.65
2022-08-10T05:42:48.469Z,5.78
2022-08-10T05:45:22.174Z,6.45
2022-08-10T05:48:42.183Z,5.85
2022-08-10T05:50:38.319Z,6.13
2022-08-10T05:54:01.309Z,6.00
2022-08-10T05:55:56.360Z,6.15
2022-08-10T05:58:24.482Z,5.95
2022-08-10T06:00:55.268Z,6.53
2022-08-10T06:03:28.666Z,8.02
2022-08-10T06:05:59.773Z,15.32
2022-08-10T06:08:31.657Z,10.55
2022-08-10T06:12:26.869Z,7.15
2022-08-10T06:16:45.071Z,7.50
2022-08-10T06:19:15.065Z,6.90
2022-08-10T06:21:55.311Z,9.82
2022-08-10T06:24:31.183Z,10.05
2022-08-10T06:27:00.913Z,7.80
2022-08-10T06:29:33.086Z,7.00
2022-08-10T06:32:02.763Z,6.70
2022-08-10T06:34:33.673Z,6.85
2022-08-10T06:37:04.438Z,7.35
2022-08-10T06:39:34.988Z,6.50
2022-08-10T06:42:16.416Z,6.83
2022-08-10T06:44:53.436Z,6.63
2022-08-10T06:47:24.426Z,6.15
2022-08-10T06:49:59.890Z,7.40
2022-08-10T06:52:29.827Z,8.93
2022-08-10T06:55:00.382Z,9.77
2022-08-10T06:57:34.227Z,6.60
2022-08-10T07:00:08.069Z,7.18
2022-08-10T07:02:42.634Z,7.15
2022-08-10T07:05:16.059Z,5.63
2022-08-10T07:07:45.279Z,6.07
2022-08-10T07:10:17.266Z,6.40
2022-08-10T07:12:47.744Z,5.72
2022-08-10T07:15:17.309Z,5.38
2022-08-10T07:17:47.193Z,5.90
2022-08-10T07:20:17.942Z,5.72
2022-08-10T07:23:54.743Z,5.37
2022-08-10T07:25:38.449Z,6.03
2022-08-10T07:28:09.293Z,5.90
2022-08-10T07:30:39.080Z,5.72
2022-08-10T07:33:08.513Z,6.15
2022-08-10T07:35:42.595Z,6.32
2022-08-10T07:38:18.765Z,7.30
2022-08-10T07:40:50.450Z,7.15
2022-08-10T07:43:22.910Z,5.45
2022-08-10T07:45:51.353Z,5.80
2022-08-10T07:48:23.930Z,6.00
2022-08-10T07:50:55.115Z,7.68
2022-08-10T07:53:27.406Z,7.75
2022-08-10T07:56:05.099Z,5.68
2022-08-10T07:58:52.493Z,5.15
2022-08-10T08:04:06.037Z,4.85
2022-08-10T08:06:39.084Z,6.15
2022-08-10T08:09:07.470Z,7.97
2022-08-10T08:11:37.421Z,9.25
2022-08-10T08:14:08.541Z,5.75
2022-08-10T08:16:40.000Z,11.70
2022-08-10T08:24:10.407Z,5.40
2022-08-10T08:24:45.827Z,4.93
2022-08-10T08:27:16.742Z,5.65
2022-08-10T08:29:48.050Z,4.63
2022-08-10T08:34:47.379Z,5.97
2022-08-10T08:37:18.838Z,5.32
2022-08-10T08:40:11.594Z,5.57
2022-08-10T08:43:06.532Z,6.68
2022-08-10T08:46:01.563Z,5.28
2022-08-10T08:48:46.662Z,6.25
2022-08-10T08:52:17.072Z,4.80
2022-08-10T08:54:23.780Z,4.15
2022-08-10T08:57:03.858Z,4.78
2022-08-10T08:59:52.063Z,4.90
2022-08-10T09:02:40.364Z,4.22
2022-08-10T09:05:27.798Z,4.85
2022-08-10T09:08:41.482Z,4.45
2022-08-10T09:11:24.928Z,4.28
2022-08-10T09:14:01.329Z,4.07
2022-08-10T09:16:36.264Z,3.97
2022-08-10T09:19:35.006Z,3.78
2022-08-10T09:22:17.331Z,4.28
2022-08-10T09:24:53.816Z,4.32
2022-08-10T09:27:23.875Z,3.50
2022-08-10T09:29:55.786Z,4.00
2022-08-10T09:36:13.789Z,3.67
2022-08-10T09:36:24.755Z,4.15
2022-08-10T09:38:25.546Z,3.70
2022-08-10T09:41:04.190Z,2.50
2022-08-10T09:43:48.987Z,2.58
2022-08-10T09:46:29.042Z,3.08
2022-08-10T09:49:06.715Z,2.90
2022-08-10T09:51:48.078Z,2.80
2022-08-10T09:54:30.965Z,2.60
2022-08-10T09:57:44.166Z,2.85
2022-08-10T10:00:09.090Z,2.10
2022-08-10T10:02:47.200Z,2.78
2022-08-10T10:05:31.854Z,2.22
2022-08-10T10:08:08.642Z,2.65
2022-08-10T10:10:46.643Z,2.50
2022-08-10T10:13:41.528Z,2.00
2022-08-10T10:16:23.222Z,2.92
2022-08-10T10:19:02.650Z,1.92
2022-08-10T10:21:55.567Z,1.80
2022-08-10T10:24:36.795Z,1.90
2022-08-10T10:27:19.810Z,1.48
2022-08-10T10:29:56.972Z,1.95
2022-08-10T10:32:37.624Z,1.98
2022-08-10T10:35:16.044Z,1.90
2022-08-10T10:38:01.755Z,2.20
2022-08-10T10:40:44.866Z,2.05
2022-08-10T10:43:27.096Z,1.67
2022-08-10T10:46:04.455Z,1.67
2022-08-10T10:48:41.209Z,1.98
2022-08-10T10:51:17.619Z,1.90
2022-08-10T10:53:53.591Z,1.95
2022-08-10T10:56:32.098Z,1.65
2022-08-10T10:59:53.995Z,2.10
2022-08-10T11:02:07.457Z,1.60
2022-08-10T11:04:41.613Z,1.70
2022-08-10T11:07:21.930Z,1.67
2022-08-10T11:10:05.480Z,1.90
2022-08-10T11:12:54.102Z,1.63
2022-08-10T11:15:28.020Z,1.80
2022-08-10T11:18:02.477Z,2.72
2022-08-10T11:20:39.866Z,2.15
2022-08-10T11:23:21.213Z,2.10
2022-08-10T11:25:59.673Z,2.00
2022-08-10T11:28:36.883Z,1.65
2022-08-10T11:31:10.751Z,1.85
2022-08-10T11:34:11.218Z,1.80
2022-08-10T11:36:42.829Z,1.65
2022-08-10T11:39:17.237Z,1.80
2022-08-10T11:42:11.594Z,1.77
2022-08-10T11:44:49.296Z,1.70
2022-08-10T11:47:21.128Z,1.83
2022-08-10T11:49:54.637Z,2.00
2022-08-10T11:52:32.596Z,2.08
2022-08-10T11:55:10.840Z,1.80
2022-08-10T11:57:54.900Z,1.50
2022-08-10T12:00:34.904Z,1.77
2022-08-10T12:03:07.007Z,1.80
2022-08-10T12:05:53.792Z,2.00
2022-08-10T12:10:03.548Z,1.90
2022-08-10T12:11:24.579Z,1.77
2022-08-10T12:14:19.706Z,1.40
2022-08-10T12:16:52.355Z,1.90
2022-08-10T12:19:28.521Z,2.03
2022-08-10T12:22:05.803Z,1.67
2022-08-10T12:24:38.922Z,1.50
2022-08-10T12:27:13.233Z,1.60
2022-08-10T12:29:47.265Z,1.20
2022-08-10T12:32:25.895Z,2.00
2022-08-10T12:35:04.433Z,1.67
2022-08-10T12:37:39.562Z,1.63
2022-08-10T12:43:15.256Z,1.52
2022-08-10T12:46:06.939Z,1.60
2022-08-10T12:48:42.909Z,1.70
2022-08-10T12:51:15.764Z,1.75
2022-08-10T12:53:51.144Z,1.60
2022-08-10T12:56:25.421Z,1.77
2022-08-10T12:58:58.910Z,1.60
2022-08-10T13:02:10.119Z,1.90
2022-08-10T13:04:30.636Z,1.70
2022-08-10T13:07:01.155Z,1.60
2022-08-10T13:09:29.148Z,1.55
2022-08-10T13:12:38.989Z,1.42
2022-08-10T13:14:54.561Z,2.35
2022-08-10T13:17:32.285Z,1.67
2022-08-10T13:20:15.927Z,1.58
2022-08-10T13:22:47.826Z,2.00
2022-08-10T13:25:21.172Z,1.60
2022-08-10T13:28:01.273Z,1.70
2022-08-10T13:30:41.643Z,1.60
2022-08-10T13:33:12.040Z,1.60
2022-08-10T13:35:45.090Z,1.77
2022-08-10T13:38:16.214Z,1.38
2022-08-10T13:43:18.256Z,1.63
2022-08-10T13:45:50.093Z,2.05
2022-08-10T13:48:21.775Z,1.70
2022-08-10T13:50:53.303Z,1.95
2022-08-10T13:53:23.009Z,2.25
2022-08-10T13:55:56.474Z,1.33
2022-08-10T13:58:27.899Z,1.70
2022-08-10T14:03:26.761Z,2.33
2022-08-10T14:05:58.518Z,1.58
2022-08-10T14:08:30.185Z,1.63
2022-08-10T14:13:43.661Z,2.03
2022-08-10T14:16:12.833Z,1.70
2022-08-10T14:18:44.872Z,1.67
2022-08-10T14:21:14.763Z,1.70
2022-08-10T14:23:53.112Z,1.75
2022-08-10T14:26:24.724Z,1.55
2022-08-10T14:28:56.354Z,1.40
2022-08-10T14:31:29.984Z,1.75
2022-08-10T14:34:00.257Z,1.60
2022-08-10T14:36:37.816Z,1.52
2022-08-10T14:39:07.072Z,1.60
2022-08-10T14:42:03.261Z,1.55
2022-08-10T14:44:28.504Z,1.35
2022-08-10T14:46:59.421Z,1.45
2022-08-10T14:52:26.873Z,1.70
2022-08-10T14:54:57.987Z,1.70
2022-08-10T14:58:17.251Z,1.20
2022-08-10T15:00:37.873Z,1.45
2022-08-10T15:03:49.404Z,1.52
2022-08-10T15:05:59.049Z,1.53
2022-08-10T15:08:37.025Z,1.40
2022-08-10T15:11:06.063Z,1.33
2022-08-10T15:13:35.496Z,1.35
2022-08-10T15:16:13.864Z,1.63
2022-08-10T15:18:57.988Z,1.42
2022-08-10T15:21:42.916Z,1.08
2022-08-10T15:24:39.795Z,1.10
2022-08-10T15:27:10.485Z,1.65
2022-08-10T15:29:57.044Z,1.35
2022-08-10T15:32:52.278Z,1.70
2022-08-10T15:35:41.999Z,1.50
2022-08-10T15:38:11.354Z,1.50
2022-08-10T15:40:52.601Z,1.30
2022-08-10T15:43:26.694Z,1.50
2022-08-10T15:46:01.726Z,1.35
2022-08-10T15:48:33.477Z,1.45
2022-08-10T15:51:05.694Z,1.13
2022-08-10T15:53:49.210Z,1.20
2022-08-10T15:56:28.159Z,1.23
2022-08-10T15:59:08.265Z,7.43
2022-08-10T16:02:13.291Z,5.47
2022-08-10T16:04:37.230Z,1.60
2022-08-10T16:07:09.848Z,2.78
2022-08-10T16:10:24.331Z,1.48
2022-08-10T16:12:37.769Z,1.10
2022-08-10T16:15:10.603Z,1.73
2022-08-10T16:17:55.440Z,1.27
2022-08-10T16:20:31.097Z,1.30
2022-08-10T16:23:03.684Z,2.17
2022-08-10T16:25:48.393Z,1.50
2022-08-10T16:28:29.422Z,1.40
2022-08-10T16:31:00.034Z,1.58
2022-08-10T16:33:53.644Z,1.30
2022-08-10T16:36:22.453Z,1.20
2022-08-10T16:38:53.298Z,2.70
2022-08-10T16:42:00.547Z,2.90
2022-08-10T16:44:17.930Z,1.30
2022-08-10T16:46:47.438Z,1.35
2022-08-10T16:49:19.024Z,1.40
2022-08-10T16:51:49.060Z,1.10
2022-08-10T16:54:26.343Z,1.25
2022-08-10T16:57:01.735Z,1.20
2022-08-10T16:59:34.991Z,1.30
2022-08-10T17:02:04.121Z,1.23
2022-08-10T17:04:34.829Z,1.02
2022-08-10T17:07:07.229Z,1.17
2022-08-10T17:09:38.450Z,1.20
2022-08-10T17:12:10.717Z,1.20
2022-08-10T17:14:42.408Z,1.50
2022-08-10T17:17:15.026Z,1.35
2022-08-10T17:19:45.882Z,1.20
2022-08-10T17:22:15.838Z,1.20
2022-08-10T17:24:47.349Z,1.60
2022-08-10T17:28:05.072Z,1.23
2022-08-10T17:30:15.675Z,1.20
2022-08-10T17:32:50.559Z,1.50
2022-08-10T17:35:23.914Z,1.65
2022-08-10T17:37:57.429Z,1.52
2022-08-10T17:40:28.443Z,1.63
2022-08-10T17:42:58.065Z,2.30
2022-08-10T17:45:46.693Z,2.70
2022-08-10T17:48:19.020Z,2.17
2022-08-10T17:50:50.640Z,2.38
2022-08-10T17:53:23.357Z,1.88
2022-08-10T17:55:56.581Z,1.67
2022-08-10T17:58:27.594Z,2.00
2022-08-10T18:01:40.783Z,1.50
2022-08-10T18:03:53.061Z,1.67
2022-08-10T18:06:22.789Z,1.15
2022-08-10T18:08:57.788Z,1.83
2022-08-10T18:11:29.546Z,1.80
2022-08-10T18:14:01.622Z,3.50
2022-08-10T18:19:08.752Z,3.28
2022-08-10T18:21:41.441Z,2.70
2022-08-10T18:24:16.300Z,2.45
2022-08-10T18:26:46.770Z,2.67
2022-08-10T18:29:18.896Z,2.33
2022-08-10T18:31:55.112Z,2.58
2022-08-10T18:34:25.491Z,2.75
2022-08-10T18:36:54.966Z,3.50
2022-08-10T18:39:26.926Z,2.72
2022-08-10T18:42:05.524Z,3.22
2022-08-10T18:44:37.023Z,6.97
2022-08-10T18:47:13.187Z,4.85
2022-08-10T18:49:54.679Z,5.70
2022-08-10T18:52:27.045Z,21.80
2022-08-10T18:55:04.870Z,17.95
2022-08-10T18:57:59.146Z,13.43
2022-08-10T19:00:34.308Z,14.82
2022-08-10T19:03:32.558Z,15.85
2022-08-10T19:06:17.827Z,12.88
2022-08-10T19:08:57.068Z,12.98
2022-08-10T19:11:38.302Z,12.38
2022-08-10T19:14:14.729Z,14.63
2022-08-10T19:16:50.244Z,15.95
2022-08-10T19:19:34.113Z,15.10
2022-08-10T19:22:05.830Z,27.42
2022-08-10T19:24:49.091Z,16.00
2022-08-10T19:27:40.126Z,12.02
2022-08-10T19:30:13.376Z,9.02
2022-08-10T19:32:55.898Z,9.32
2022-08-10T19:38:33.186Z,6.25
2022-08-10T19:41:10.348Z,3.47
2022-08-10T19:44:00.251Z,3.75
2022-08-10T19:46:40.140Z,3.58
2022-08-10T19:49:18.474Z,2.88
2022-08-10T19:51:56.450Z,2.85
2022-08-10T19:54:31.992Z,2.88
2022-08-10T19:57:08.512Z,2.17
2022-08-10T20:00:16.346Z,2.17
2022-08-10T20:02:48.097Z,2.47
2022-08-10T20:05:26.959Z,2.00
2022-08-10T20:08:03.548Z,2.50
2022-08-10T20:10:38.449Z,1.85
2022-08-10T20:13:26.709Z,2.47
2022-08-10T20:15:59.062Z,2.15
2022-08-10T20:18:31.706Z,2.03
2022-08-10T20:21:04.391Z,2.55
2022-08-10T20:23:36.917Z,2.17
2022-08-10T20:28:43.326Z,2.47
2022-08-10T20:31:17.596Z,2.58
2022-08-10T20:34:00.902Z,3.33
2022-08-10T20:36:33.182Z,3.40
2022-08-10T20:39:17.557Z,3.42
2022-08-10T20:42:01.101Z,3.13
2022-08-10T20:44:41.947Z,2.65
2022-08-10T20:47:14.624Z,2.50
2022-08-10T20:49:51.624Z,2.95
2022-08-10T20:52:21.731Z,2.40
2022-08-10T20:54:55.058Z,2.30
2022-08-10T20:58:04.740Z,2.40
2022-08-10T21:00:25.689Z,2.60
2022-08-10T21:03:33.819Z,3.10
2022-08-10T21:06:35.991Z,2.90
2022-08-10T21:09:22.170Z,2.45
2022-08-10T21:12:16.352Z,2.97
2022-08-10T21:14:54.428Z,2.47
2022-08-10T21:17:44.534Z,2.63
2022-08-10T21:20:30.770Z,2.50
2022-08-10T21:23:05.178Z,2.70
2022-08-10T21:25:43.372Z,2.13
2022-08-10T21:28:31.218Z,2.50
2022-08-10T21:34:12.579Z,2.33
2022-08-10T21:36:47.531Z,2.53
2022-08-10T21:39:21.894Z,2.70
2022-08-10T21:42:37.707Z,2.88
2022-08-10T21:45:58.113Z,2.67
2022-08-10T21:48:57.171Z,2.88
2022-08-10T21:52:04.097Z,2.92
2022-08-10T21:54:58.814Z,3.20
2022-08-10T21:57:48.953Z,2.95
2022-08-10T22:00:36.532Z,2.90
2022-08-10T22:03:24.281Z,3.15
2022-08-10T22:06:12.917Z,3.10
2022-08-10T22:31:28.639Z,2.58
2022-08-10T23:11:17.395Z,2.45
2022-08-10T23:13:48.254Z,2.83
2022-08-10T23:16:37.854Z,3.22
2022-08-10T23:19:09.874Z,3.42
2022-08-10T23:22:04.120Z,2.80
2022-08-10T23:24:37.475Z,3.42
2022-08-10T23:27:12.406Z,3.28
2022-08-10T23:30:10.880Z,3.00
2022-08-10T23:32:37.245Z,3.60
2022-08-10T23:36:31.774Z,3.30
2022-08-10T23:38:00.394Z,3.35
2022-08-10T23:40:29.382Z,3.28
2022-08-10T23:42:58.605Z,3.63
2022-08-10T23:45:52.749Z,3.25
2022-08-10T23:48:21.161Z,3.22
2022-08-10T23:50:53.385Z,3.30
2022-08-10T23:53:31.105Z,3.42
2022-08-10T23:56:01.925Z,3.58
2022-08-10T23:58:38.686Z,3.23
